Portada
METAR-TAF:

METAR-TAF

Aeropuertos :

Plasencia, Italia

latitud: 44-55N, longitud: 009-44E, altitud: 134 m

Observación

El informe se hizo hace 8 horas y 5 minutos, a las 17:55 UTC
Viento 4 kt del este-noreste
Temperatura 22°C
Humedad 46%
Presión 1013 hPa
Visibilidad 10 km o más
sin nubes por debajo de 1500 m y sin presencia de cumulonimbus.

METAR: LIMS 311755Z 06004KT CAVOK 22/10 Q1013 RMK FEW FEW200 VIS MIN 9999 WIND THR30 06004KT BLU

Hora: 04:00 (02:00 UTC)


TAF: falta

Observaciones y pronósticos meteorológicos de más de 4000 aeropuertos (mensajes METAR y TAF).

Los puntos amarillos y rojos representan las estaciones disponibles.

Ponga el ratón en el punto deseado para ver el nombre de la estación.

Haga clic para ver las observaciones y los pronósticos meteorológicos.

Para cambiar el mapa : haga clic en los botones verdes con una cruz de color negro para hacer un zoom, en el botón verde con un guión para alejar o en las flechas verdes para mapas adyacentes.


METAR-TAF: